sensor_id;sensor_type;location;lat;lon;timestamp;pressure;altitude;pressure_sealevel;temperature;humidity
10392;BME280;5242;49.244;6.774;2022-11-14T00:06:25;99583.22;;;5.33;100.00
10392;BME280;5242;49.244;6.774;2022-11-14T00:14:18;99569.84;;;5.28;100.00
10392;BME280;5242;49.244;6.774;2022-11-14T00:22:10;99554.59;;;5.23;100.00
10392;BME280;5242;49.244;6.774;2022-11-14T00:30:02;99541.59;;;5.17;100.00
10392;BME280;5242;49.244;6.774;2022-11-14T00:37:54;99547.91;;;5.04;100.00
10392;BME280;5242;49.244;6.774;2022-11-14T00:45:46;99527.25;;;4.90;100.00
10392;BME280;5242;49.244;6.774;2022-11-14T00:53:38;99526.31;;;4.86;100.00
10392;BME280;5242;49.244;6.774;2022-11-14T01:01:30;99518.66;;;4.79;100.00
10392;BME280;5242;49.244;6.774;2022-11-14T01:09:22;99515.19;;;4.79;100.00
10392;BME280;5242;49.244;6.774;2022-11-14T01:17:13;99501.69;;;4.79;100.00
10392;BME280;5242;49.244;6.774;2022-11-14T01:25:06;99499.16;;;4.74;100.00
10392;BME280;5242;49.244;6.774;2022-11-14T01:32:57;99488.34;;;4.74;100.00
10392;BME280;5242;49.244;6.774;2022-11-14T01:40:49;99481.84;;;4.75;100.00
10392;BME280;5242;49.244;6.774;2022-11-14T01:48:58;99471.03;;;4.75;100.00
10392;BME280;5242;49.244;6.774;2022-11-14T01:56:54;99465.34;;;4.76;100.00
10392;BME280;5242;49.244;6.774;2022-11-14T02:05:00;99458.84;;;4.77;100.00
10392;BME280;5242;49.244;6.774;2022-11-14T02:12:53;99447.09;;;4.82;100.00
10392;BME280;5242;49.244;6.774;2022-11-14T02:20:45;99429.16;;;4.86;100.00
10392;BME280;5242;49.244;6.774;2022-11-14T02:28:37;99420.75;;;4.88;100.00
10392;BME280;5242;49.244;6.774;2022-11-14T02:36:28;99412.34;;;4.89;100.00
10392;BME280;5242;49.244;6.774;2022-11-14T02:44:20;99399.50;;;4.86;100.00
10392;BME280;5242;49.244;6.774;2022-11-14T02:52:12;99391.84;;;4.88;100.00
10392;BME280;5242;49.244;6.774;2022-11-14T03:00:04;99377.72;;;4.91;100.00
10392;BME280;5242;49.244;6.774;2022-11-14T03:08:05;99370.56;;;4.95;100.00
10392;BME280;5242;49.244;6.774;2022-11-14T03:15:56;99357.88;;;4.96;100.00
10392;BME280;5242;49.244;6.774;2022-11-14T03:23:48;99344.69;;;4.94;100.00
10392;BME280;5242;49.244;6.774;2022-11-14T03:31:40;99340.09;;;4.95;100.00
10392;BME280;5242;49.244;6.774;2022-11-14T03:39:32;99340.22;;;4.98;100.00
10392;BME280;5242;49.244;6.774;2022-11-14T03:47:23;99346.63;;;4.94;100.00
10392;BME280;5242;49.244;6.774;2022-11-14T03:55:15;99343.09;;;4.93;100.00
10392;BME280;5242;49.244;6.774;2022-11-14T04:03:07;99338.53;;;4.94;100.00
10392;BME280;5242;49.244;6.774;2022-11-14T04:10:59;99327.88;;;4.97;100.00
10392;BME280;5242;49.244;6.774;2022-11-14T04:18:50;99322.94;;;4.99;100.00
10392;BME280;5242;49.244;6.774;2022-11-14T04:26:42;99304.06;;;4.99;100.00
10392;BME280;5242;49.244;6.774;2022-11-14T04:34:34;99290.56;;;4.99;100.00
10392;BME280;5242;49.244;6.774;2022-11-14T04:42:26;99290.72;;;4.94;100.00
10392;BME280;5242;49.244;6.774;2022-11-14T04:50:17;99294.69;;;4.97;100.00
10392;BME280;5242;49.244;6.774;2022-11-14T04:58:09;99293.25;;;4.99;100.00
10392;BME280;5242;49.244;6.774;2022-11-14T05:06:02;99291.31;;;5.09;100.00
10392;BME280;5242;49.244;6.774;2022-11-14T05:13:53;99269.25;;;5.07;100.00
10392;BME280;5242;49.244;6.774;2022-11-14T05:21:45;99264.31;;;5.09;100.00
10392;BME280;5242;49.244;6.774;2022-11-14T05:29:37;99269.09;;;5.12;100.00
10392;BME280;5242;49.244;6.774;2022-11-14T05:37:29;99259.69;;;5.18;100.00
10392;BME280;5242;49.244;6.774;2022-11-14T05:45:21;99267.59;;;5.23;100.00
10392;BME280;5242;49.244;6.774;2022-11-14T05:53:13;99270.78;;;5.25;100.00
10392;BME280;5242;49.244;6.774;2022-11-14T06:01:13;99262.97;;;5.32;100.00
10392;BME280;5242;49.244;6.774;2022-11-14T06:09:05;99252.47;;;5.39;100.00
10392;BME280;5242;49.244;6.774;2022-11-14T06:16:57;99240.22;;;5.42;100.00
10392;BME280;5242;49.244;6.774;2022-11-14T06:24:49;99219.34;;;5.51;100.00
10392;BME280;5242;49.244;6.774;2022-11-14T06:32:41;99212.69;;;5.70;100.00
10392;BME280;5242;49.244;6.774;2022-11-14T06:40:32;99226.44;;;5.85;100.00
10392;BME280;5242;49.244;6.774;2022-11-14T06:48:24;99246.09;;;5.95;100.00
10392;BME280;5242;49.244;6.774;2022-11-14T06:56:17;99245.22;;;6.03;100.00
10392;BME280;5242;49.244;6.774;2022-11-14T07:04:10;99252.03;;;6.09;100.00
10392;BME280;5242;49.244;6.774;2022-11-14T07:12:02;99247.53;;;6.13;100.00
10392;BME280;5242;49.244;6.774;2022-11-14T07:19:54;99250.03;;;6.18;100.00
10392;BME280;5242;49.244;6.774;2022-11-14T07:27:45;99256.50;;;6.26;100.00
10392;BME280;5242;49.244;6.774;2022-11-14T07:35:38;99248.06;;;6.27;100.00
10392;BME280;5242;49.244;6.774;2022-11-14T07:43:31;99245.16;;;6.32;100.00
10392;BME280;5242;49.244;6.774;2022-11-14T07:51:22;99255.00;;;6.37;100.00
10392;BME280;5242;49.244;6.774;2022-11-14T07:59:14;99242.72;;;6.40;100.00
10392;BME280;5242;49.244;6.774;2022-11-14T08:07:06;99239.91;;;6.48;100.00
10392;BME280;5242;49.244;6.774;2022-11-14T08:14:58;99225.19;;;6.58;100.00
10392;BME280;5242;49.244;6.774;2022-11-14T08:22:49;99218.69;;;6.71;100.00
10392;BME280;5242;49.244;6.774;2022-11-14T08:30:41;99225.91;;;6.80;100.00
10392;BME280;5242;49.244;6.774;2022-11-14T08:38:33;99242.16;;;6.80;100.00
10392;BME280;5242;49.244;6.774;2022-11-14T08:46:25;99232.91;;;6.81;100.00
10392;BME280;5242;49.244;6.774;2022-11-14T08:54:16;99238.78;;;6.83;100.00
10392;BME280;5242;49.244;6.774;2022-11-14T09:02:12;99230.88;;;6.90;100.00
10392;BME280;5242;49.244;6.774;2022-11-14T09:10:05;99234.28;;;6.99;100.00
10392;BME280;5242;49.244;6.774;2022-11-14T09:17:57;99243.91;;;7.09;100.00
10392;BME280;5242;49.244;6.774;2022-11-14T09:25:49;99240.19;;;7.13;100.00
10392;BME280;5242;49.244;6.774;2022-11-14T09:33:40;99247.63;;;7.16;100.00
10392;BME280;5242;49.244;6.774;2022-11-14T09:41:51;99236.81;;;7.29;100.00
10392;BME280;5242;49.244;6.774;2022-11-14T09:49:50;99243.59;;;7.47;100.00
10392;BME280;5242;49.244;6.774;2022-11-14T09:57:44;99235.44;;;7.59;100.00
10392;BME280;5242;49.244;6.774;2022-11-14T10:45:40;99222.38;;;7.90;100.00
10392;BME280;5242;49.244;6.774;2022-11-14T10:53:45;99221.34;;;8.06;100.00
10392;BME280;5242;49.244;6.774;2022-11-14T11:09:40;99213.25;;;8.22;100.00
10392;BME280;5242;49.244;6.774;2022-11-14T11:18:04;99202.22;;;8.43;100.00
10392;BME280;5242;49.244;6.774;2022-11-14T11:26:15;99194.28;;;8.66;100.00
10392;BME280;5242;49.244;6.774;2022-11-14T11:34:08;99204.22;;;8.90;100.00
10392;BME280;5242;49.244;6.774;2022-11-14T11:42:04;99214.03;;;9.11;100.00
10392;BME280;5242;49.244;6.774;2022-11-14T11:50:01;99203.34;;;9.18;100.00
10392;BME280;5242;49.244;6.774;2022-11-14T12:06:00;99207.88;;;9.30;100.00
10392;BME280;5242;49.244;6.774;2022-11-14T12:22:27;99210.63;;;9.65;100.00
10392;BME280;5242;49.244;6.774;2022-11-14T12:30:26;99200.19;;;9.87;100.00
10392;BME280;5242;49.244;6.774;2022-11-14T12:38:19;99201.50;;;9.93;100.00
10392;BME280;5242;49.244;6.774;2022-11-14T12:46:12;99202.50;;;9.85;100.00
10392;BME280;5242;49.244;6.774;2022-11-14T12:54:04;99196.34;;;9.88;100.00
10392;BME280;5242;49.244;6.774;2022-11-14T13:10:43;99198.03;;;9.76;100.00
10392;BME280;5242;49.244;6.774;2022-11-14T13:18:35;99188.16;;;9.68;100.00
10392;BME280;5242;49.244;6.774;2022-11-14T13:26:53;99185.28;;;9.61;100.00
10392;BME280;5242;49.244;6.774;2022-11-14T13:34:56;99188.53;;;9.51;100.00
10392;BME280;5242;49.244;6.774;2022-11-14T13:43:02;99196.56;;;9.44;100.00
10392;BME280;5242;49.244;6.774;2022-11-14T13:51:00;99182.03;;;9.36;100.00
10392;BME280;5242;49.244;6.774;2022-11-14T14:31:41;99183.09;;;9.00;100.00
10392;BME280;5242;49.244;6.774;2022-11-14T14:39:33;99179.25;;;9.01;100.00
10392;BME280;5242;49.244;6.774;2022-11-14T14:55:26;99193.25;;;9.19;100.00
10392;BME280;5242;49.244;6.774;2022-11-14T15:03:18;99184.06;;;9.23;100.00
10392;BME280;5242;49.244;6.774;2022-11-14T15:11:12;99190.28;;;9.24;100.00
10392;BME280;5242;49.244;6.774;2022-11-14T15:19:05;99181.59;;;9.18;100.00
10392;BME280;5242;49.244;6.774;2022-11-14T15:26:57;99188.00;;;9.10;100.00
10392;BME280;5242;49.244;6.774;2022-11-14T15:43:55;99198.69;;;8.87;100.00
10392;BME280;5242;49.244;6.774;2022-11-14T15:51:57;99192.66;;;8.93;100.00
10392;BME280;5242;49.244;6.774;2022-11-14T15:59:51;99182.84;;;8.73;100.00
10392;BME280;5242;49.244;6.774;2022-11-14T16:07:43;99191.03;;;8.61;100.00
10392;BME280;5242;49.244;6.774;2022-11-14T16:15:34;99190.84;;;8.54;100.00
10392;BME280;5242;49.244;6.774;2022-11-14T16:23:26;99185.59;;;8.45;100.00
10392;BME280;5242;49.244;6.774;2022-11-14T16:31:18;99192.06;;;8.40;100.00
10392;BME280;5242;49.244;6.774;2022-11-14T16:39:11;99210.50;;;8.35;100.00
10392;BME280;5242;49.244;6.774;2022-11-14T16:47:04;99206.53;;;8.32;100.00
10392;BME280;5242;49.244;6.774;2022-11-14T16:54:55;99215.84;;;8.31;100.00
10392;BME280;5242;49.244;6.774;2022-11-14T17:02:47;99219.22;;;8.28;100.00
10392;BME280;5242;49.244;6.774;2022-11-14T17:10:43;99218.69;;;8.22;100.00
10392;BME280;5242;49.244;6.774;2022-11-14T17:18:35;99213.16;;;8.19;100.00
10392;BME280;5242;49.244;6.774;2022-11-14T17:26:29;99220.84;;;8.17;100.00
10392;BME280;5242;49.244;6.774;2022-11-14T17:34:21;99222.41;;;8.18;100.00
10392;BME280;5242;49.244;6.774;2022-11-14T17:42:13;99222.41;;;8.18;100.00
10392;BME280;5242;49.244;6.774;2022-11-14T17:50:05;99224.25;;;8.14;100.00
10392;BME280;5242;49.244;6.774;2022-11-14T17:57:57;99226.06;;;8.10;100.00
10392;BME280;5242;49.244;6.774;2022-11-14T18:05:48;99225.06;;;8.02;100.00
10392;BME280;5242;49.244;6.774;2022-11-14T18:13:40;99231.09;;;7.95;100.00
10392;BME280;5242;49.244;6.774;2022-11-14T18:21:32;99233.13;;;7.86;100.00
10392;BME280;5242;49.244;6.774;2022-11-14T18:29:24;99240.28;;;7.78;100.00
10392;BME280;5242;49.244;6.774;2022-11-14T18:37:16;99242.66;;;7.68;100.00
10392;BME280;5242;49.244;6.774;2022-11-14T18:45:08;99236.09;;;7.56;100.00
10392;BME280;5242;49.244;6.774;2022-11-14T18:53:00;99232.84;;;7.51;100.00
10392;BME280;5242;49.244;6.774;2022-11-14T19:00:52;99229.34;;;7.50;100.00
10392;BME280;5242;49.244;6.774;2022-11-14T19:08:43;99235.22;;;7.52;100.00
10392;BME280;5242;49.244;6.774;2022-11-14T19:16:36;99242.91;;;7.50;100.00
10392;BME280;5242;49.244;6.774;2022-11-14T19:24:28;99240.09;;;7.47;100.00
10392;BME280;5242;49.244;6.774;2022-11-14T19:32:20;99240.97;;;7.51;100.00
10392;BME280;5242;49.244;6.774;2022-11-14T19:40:12;99240.19;;;7.50;100.00
10392;BME280;5242;49.244;6.774;2022-11-14T19:48:05;99242.44;;;7.48;100.00
10392;BME280;5242;49.244;6.774;2022-11-14T19:56:02;99255.53;;;7.46;100.00
10392;BME280;5242;49.244;6.774;2022-11-14T20:04:01;99267.75;;;7.52;100.00
10392;BME280;5242;49.244;6.774;2022-11-14T20:11:53;99287.38;;;7.61;100.00
10392;BME280;5242;49.244;6.774;2022-11-14T20:19:45;99275.88;;;7.65;100.00
10392;BME280;5242;49.244;6.774;2022-11-14T20:27:37;99266.28;;;8.07;100.00
10392;BME280;5242;49.244;6.774;2022-11-14T20:35:29;99275.72;;;8.66;100.00
10392;BME280;5242;49.244;6.774;2022-11-14T20:43:21;99265.81;;;9.02;100.00
10392;BME280;5242;49.244;6.774;2022-11-14T20:51:22;99259.50;;;9.30;100.00
10392;BME280;5242;49.244;6.774;2022-11-14T20:59:14;99252.22;;;9.50;100.00
10392;BME280;5242;49.244;6.774;2022-11-14T21:07:06;99254.84;;;9.62;100.00
10392;BME280;5242;49.244;6.774;2022-11-14T21:14:57;99253.41;;;9.68;100.00
10392;BME280;5242;49.244;6.774;2022-11-14T21:22:49;99250.06;;;9.75;100.00
10392;BME280;5242;49.244;6.774;2022-11-14T21:30:41;99244.19;;;9.73;100.00
10392;BME280;5242;49.244;6.774;2022-11-14T21:38:33;99252.34;;;9.73;100.00
10392;BME280;5242;49.244;6.774;2022-11-14T21:46:25;99252.00;;;9.74;100.00
10392;BME280;5242;49.244;6.774;2022-11-14T21:54:17;99251.31;;;9.77;100.00
10392;BME280;5242;49.244;6.774;2022-11-14T22:02:12;99250.53;;;9.77;100.00
10392;BME280;5242;49.244;6.774;2022-11-14T22:10:22;99257.53;;;9.78;100.00
10392;BME280;5242;49.244;6.774;2022-11-14T22:18:14;99257.53;;;9.78;100.00
10392;BME280;5242;49.244;6.774;2022-11-14T22:26:06;99234.53;;;9.75;100.00
10392;BME280;5242;49.244;6.774;2022-11-14T22:33:58;99234.97;;;9.77;100.00
10392;BME280;5242;49.244;6.774;2022-11-14T22:41:49;99231.03;;;9.75;100.00
10392;BME280;5242;49.244;6.774;2022-11-14T22:49:41;99222.44;;;9.73;100.00
10392;BME280;5242;49.244;6.774;2022-11-14T22:57:33;99238.41;;;9.74;100.00
10392;BME280;5242;49.244;6.774;2022-11-14T23:05:24;99235.16;;;9.85;100.00
10392;BME280;5242;49.244;6.774;2022-11-14T23:13:16;99217.88;;;9.96;100.00
10392;BME280;5242;49.244;6.774;2022-11-14T23:21:14;99219.25;;;10.06;100.00
10392;BME280;5242;49.244;6.774;2022-11-14T23:29:10;99221.97;;;10.06;100.00
10392;BME280;5242;49.244;6.774;2022-11-14T23:37:03;99208.38;;;10.06;100.00
10392;BME280;5242;49.244;6.774;2022-11-14T23:44:54;99196.63;;;10.02;100.00
10392;BME280;5242;49.244;6.774;2022-11-14T23:52:46;99202.22;;;9.90;100.00
